logo dgac
Miércoles 20 de Febrero del 2019
Buscar por aerodromo o helipuerto
Ingrese nombre de aeródromo, localidad o designador OACI:

Aeródromo: Quellón (PUB) (SCON)

Ubicación: Chiloé, X Región, Chile (43º 08' 07'' S, 73º 38' 04'' W) Ver ubicación en el mapa

Pistas

Orientación Dimensión Pendiente Superficie Resistencia APCH THR RWY PAPI
04/22 1200 X 24 0,80 ASPH PCN 15 F/C/Y/T No No No No
Horas de operación HJ
Elevación 13 m / 42 ft
Otra Información Adm : DGAC
Uso : PUB
Ubicado : 2 km SW de Quellón

AD AFIS Fcia 126,7 MHZ

Otra información ver AIP-Chile Volumen I AD 3.9-3.8-C
CCCM/FCCV Descargar
andera de Chile
Mapa de Quellón (PUB) (SCON)

Último METAR

METAR SCON 201200Z 33003KT 9999 OVC025 12/11 Q1012

Último TAF

No hay tafs registrados para este aeródromo

Últimas fotos cámaras

Imagen aerodromo Quellón (PUB) (SCON) Sur tomada el 20-02-2019 09:20:48 Imagen aerodromo Quellón (PUB) (SCON) Norte tomada el 20-02-2019 09:25:20

Último NOTAM

C3594/18 NOTAMN Q)SCTZ/QFMAH/IV/BO/A/000/999/4308S07338W005 A)SCON B)1811161220 C)PERM E)IVNO MON-THU BTN 2101-1159 / FRI BTN 2001-1159 SAT/SUN/HOL 0000-2359 VRNO MON-THU BTN 2001-1059 / FRI BTN 1901-1059 SAT/SUN/HOL 0000-2359 HR AUTO METAR AUTO SPECI

LLegadas a Quellón (PUB) (SCON)

En vuelo

Vuelo Procedencia Hora Despegue Local Hora Arribo Local

Salidas de Quellón (PUB) (SCON)

En vuelo

Vuelo Hacia Hora Despegue Local Hora Arribo Local